createdAt,value
2022-11-19T00:02:17.786Z,4.70
2022-11-19T00:05:04.851Z,5.10
2022-11-19T00:07:52.975Z,4.60
2022-11-19T00:10:40.224Z,4.60
2022-11-19T00:13:27.180Z,4.60
2022-11-19T00:16:15.001Z,4.90
2022-11-19T00:19:02.459Z,4.70
2022-11-19T00:21:50.167Z,5.00
2022-11-19T00:24:37.246Z,4.67
2022-11-19T00:27:24.288Z,4.73
2022-11-19T00:30:32.656Z,4.83
2022-11-19T00:33:19.142Z,4.67
2022-11-19T00:36:08.936Z,4.67
2022-11-19T00:38:55.875Z,5.03
2022-11-19T00:41:42.788Z,5.53
2022-11-19T00:44:35.525Z,5.20
2022-11-19T00:47:24.035Z,4.90
2022-11-19T00:50:10.977Z,5.53
2022-11-19T00:52:59.451Z,5.00
2022-11-19T00:55:46.409Z,5.37
2022-11-19T00:58:33.654Z,5.73
2022-11-19T01:01:22.290Z,5.20
2022-11-19T01:04:09.304Z,4.77
2022-11-19T01:06:56.333Z,5.20
2022-11-19T01:09:43.352Z,5.63
2022-11-19T01:12:30.331Z,5.57
2022-11-19T01:15:17.329Z,5.20
2022-11-19T01:18:04.334Z,4.83
2022-11-19T01:20:51.344Z,5.30
2022-11-19T01:23:39.609Z,5.00
2022-11-19T01:26:27.541Z,5.07
2022-11-19T01:29:14.553Z,5.20
2022-11-19T01:32:01.505Z,5.03
2022-11-19T01:34:50.070Z,5.40
2022-11-19T01:37:36.989Z,5.30
2022-11-19T01:40:23.950Z,5.57
2022-11-19T01:43:13.321Z,5.23
2022-11-19T01:46:00.285Z,4.73
2022-11-19T01:49:20.370Z,5.40
2022-11-19T01:52:07.894Z,4.90
2022-11-19T01:54:55.961Z,5.63
2022-11-19T01:57:43.054Z,5.37
2022-11-19T02:00:30.013Z,4.87
2022-11-19T02:03:18.780Z,4.87
2022-11-19T02:06:06.889Z,5.47
2022-11-19T02:08:53.967Z,5.47
2022-11-19T02:12:06.172Z,5.23
2022-11-19T02:15:02.128Z,4.97
2022-11-19T02:17:59.633Z,4.90
2022-11-19T02:21:01.827Z,5.10
2022-11-19T02:24:01.719Z,4.60
2022-11-19T02:27:18.230Z,4.97
2022-11-19T02:30:16.205Z,4.70
2022-11-19T02:33:09.574Z,5.20
2022-11-19T02:36:09.359Z,4.20
2022-11-19T02:39:15.161Z,4.87
2022-11-19T02:42:17.521Z,4.37
2022-11-19T02:45:16.502Z,4.47
2022-11-19T02:48:17.902Z,4.30
2022-11-19T02:51:06.700Z,4.57
2022-11-19T02:53:54.945Z,4.50
2022-11-19T02:56:53.639Z,4.30
2022-11-19T03:00:07.433Z,4.30
2022-11-19T03:03:23.607Z,4.00
2022-11-19T03:06:20.001Z,4.63
2022-11-19T03:09:07.088Z,4.50
2022-11-19T03:12:07.789Z,5.17
2022-11-19T03:15:21.162Z,4.50
2022-11-19T03:18:17.266Z,4.23
2022-11-19T03:21:19.240Z,4.50
2022-11-19T03:24:27.546Z,4.10
2022-11-19T03:27:23.812Z,5.00
2022-11-19T03:30:12.910Z,5.90
2022-11-19T03:33:41.513Z,6.90
2022-11-19T03:36:36.358Z,6.83
2022-11-19T03:39:24.080Z,6.17
2022-11-19T03:42:13.241Z,5.97
2022-11-19T03:45:07.480Z,5.30
2022-11-19T03:47:58.093Z,5.40
2022-11-19T03:50:49.549Z,4.90
2022-11-19T03:53:39.198Z,5.13
2022-11-19T03:56:27.438Z,5.27
2022-11-19T03:59:18.110Z,4.50
2022-11-19T04:02:07.576Z,4.40
2022-11-19T04:04:56.651Z,4.40
2022-11-19T04:07:44.069Z,4.50
2022-11-19T04:10:31.039Z,4.80
2022-11-19T04:13:18.037Z,4.67
2022-11-19T04:16:05.126Z,5.03
2022-11-19T04:18:52.067Z,4.87
2022-11-19T04:21:39.418Z,4.33
2022-11-19T04:24:26.342Z,4.87
2022-11-19T04:27:14.540Z,5.27
2022-11-19T04:30:04.546Z,4.60
2022-11-19T04:32:51.895Z,4.53
2022-11-19T04:35:39.313Z,5.00
2022-11-19T04:38:27.644Z,5.10
2022-11-19T04:41:15.014Z,4.60
2022-11-19T04:44:02.184Z,4.93
2022-11-19T04:46:49.235Z,5.20
2022-11-19T04:49:36.214Z,5.27
2022-11-19T04:52:23.180Z,4.20
2022-11-19T04:55:10.852Z,5.07
2022-11-19T04:57:58.238Z,4.50
2022-11-19T05:00:46.184Z,4.47
2022-11-19T05:03:33.574Z,4.40
2022-11-19T05:06:23.053Z,4.60
2022-11-19T05:09:10.535Z,5.00
2022-11-19T05:12:00.190Z,4.67
2022-11-19T05:14:49.545Z,4.20
2022-11-19T05:17:39.181Z,5.10
2022-11-19T05:20:26.561Z,4.70
2022-11-19T05:23:14.013Z,4.83
2022-11-19T05:26:01.966Z,5.50
2022-11-19T05:28:49.347Z,4.77
2022-11-19T05:31:36.707Z,5.37
2022-11-19T05:34:24.073Z,4.73
2022-11-19T05:37:13.756Z,5.50
2022-11-19T05:40:03.790Z,6.33
2022-11-19T05:42:51.258Z,5.60
2022-11-19T05:45:38.620Z,5.47
2022-11-19T05:48:28.385Z,5.07
2022-11-19T05:51:17.184Z,6.80
2022-11-19T05:54:05.425Z,7.37
2022-11-19T05:56:55.187Z,7.77
2022-11-19T05:59:45.975Z,6.83
2022-11-19T06:02:35.819Z,5.90
2022-11-19T06:05:23.229Z,6.33
2022-11-19T06:08:10.572Z,6.33
2022-11-19T06:10:57.916Z,6.63
2022-11-19T06:13:49.699Z,6.03
2022-11-19T06:16:37.078Z,5.13
2022-11-19T06:19:26.796Z,5.60
2022-11-19T06:22:14.794Z,5.87
2022-11-19T06:25:02.447Z,5.40
2022-11-19T06:27:49.879Z,5.07
2022-11-19T06:30:37.412Z,4.73
2022-11-19T06:33:26.995Z,4.97
2022-11-19T06:36:14.089Z,4.43
2022-11-19T06:39:01.129Z,5.00
2022-11-19T06:41:50.560Z,5.03
2022-11-19T06:44:40.290Z,4.47
2022-11-19T06:47:29.893Z,5.20
2022-11-19T06:50:19.638Z,5.10
2022-11-19T06:53:07.019Z,5.33
2022-11-19T06:56:00.455Z,5.10
2022-11-19T06:58:50.270Z,5.30
2022-11-19T07:01:39.905Z,5.50
2022-11-19T07:04:27.164Z,5.47
2022-11-19T07:07:14.199Z,5.07
2022-11-19T07:10:01.892Z,5.67
2022-11-19T07:12:54.533Z,5.73
2022-11-19T07:15:43.023Z,5.27
2022-11-19T07:18:33.525Z,5.87
2022-11-19T07:21:20.588Z,5.30
2022-11-19T07:24:09.481Z,5.73
2022-11-19T07:26:56.586Z,5.50
2022-11-19T07:29:43.520Z,5.23
2022-11-19T07:32:30.525Z,5.03
2022-11-19T07:35:17.993Z,5.07
2022-11-19T07:38:05.365Z,5.27
2022-11-19T07:40:53.997Z,5.30
2022-11-19T07:43:40.940Z,5.80
2022-11-19T07:46:27.963Z,4.47
2022-11-19T07:49:15.028Z,4.90
2022-11-19T07:52:02.520Z,4.77
2022-11-19T07:54:49.471Z,4.87
2022-11-19T07:57:37.973Z,4.97
2022-11-19T08:00:25.112Z,4.30
2022-11-19T08:03:12.240Z,5.20
2022-11-19T08:05:59.207Z,5.30
2022-11-19T08:08:47.611Z,5.00
2022-11-19T08:11:36.948Z,4.67
2022-11-19T08:14:25.964Z,4.90
2022-11-19T08:17:34.293Z,5.27
2022-11-19T08:20:22.145Z,4.87
2022-11-19T08:23:11.585Z,4.40
2022-11-19T08:25:59.052Z,4.83
2022-11-19T08:28:46.410Z,4.70
2022-11-19T08:31:34.734Z,4.47
2022-11-19T08:34:22.856Z,4.27
2022-11-19T08:37:13.468Z,4.77
2022-11-19T08:40:02.656Z,4.70
2022-11-19T08:43:01.978Z,5.70
2022-11-19T08:45:54.863Z,5.40
2022-11-19T08:48:42.411Z,5.27
2022-11-19T08:51:29.810Z,5.07
2022-11-19T08:54:17.909Z,3.97
2022-11-19T08:57:05.654Z,3.67
2022-11-19T08:59:55.272Z,3.50
2022-11-19T09:02:42.822Z,3.30
2022-11-19T09:05:30.347Z,3.47
2022-11-19T09:08:17.726Z,3.07
2022-11-19T09:11:09.036Z,2.80
2022-11-19T09:13:57.848Z,3.43
2022-11-19T09:16:45.289Z,3.13
2022-11-19T09:19:32.649Z,3.80
2022-11-19T09:22:20.080Z,3.53
2022-11-19T09:25:08.983Z,3.50
2022-11-19T09:27:56.514Z,3.13
2022-11-19T09:30:43.933Z,3.03
2022-11-19T09:33:32.059Z,3.30
2022-11-19T09:36:19.924Z,3.00
2022-11-19T09:39:07.359Z,3.00
2022-11-19T09:42:00.831Z,3.40
2022-11-19T09:45:02.530Z,3.60
2022-11-19T09:47:59.010Z,3.73
2022-11-19T09:50:53.305Z,2.90
2022-11-19T09:54:02.836Z,3.37
2022-11-19T09:56:52.558Z,3.30
2022-11-19T09:59:40.943Z,3.20
2022-11-19T10:02:29.007Z,3.53
2022-11-19T10:05:20.360Z,3.90
2022-11-19T10:08:17.428Z,3.60
2022-11-19T10:11:13.952Z,3.20
2022-11-19T10:14:09.937Z,3.30
2022-11-19T10:17:04.132Z,3.40
2022-11-19T10:19:55.144Z,3.60
2022-11-19T10:22:57.759Z,2.90
2022-11-19T10:25:47.692Z,2.43
2022-11-19T10:28:39.416Z,2.43
2022-11-19T10:31:38.044Z,3.10
2022-11-19T10:34:27.844Z,3.80
2022-11-19T10:37:17.318Z,3.33
2022-11-19T10:40:09.028Z,3.30
2022-11-19T10:43:18.152Z,3.03
2022-11-19T10:46:11.521Z,2.97
2022-11-19T10:48:59.722Z,3.40
2022-11-19T10:51:47.140Z,3.00
2022-11-19T10:54:34.811Z,3.30
2022-11-19T10:57:22.760Z,3.40
2022-11-19T11:00:11.976Z,3.77
2022-11-19T11:03:04.407Z,3.33
2022-11-19T11:06:11.058Z,3.50
2022-11-19T11:08:58.403Z,3.47
2022-11-19T11:12:05.704Z,3.70
2022-11-19T11:14:54.353Z,3.70
2022-11-19T11:17:42.660Z,3.10
2022-11-19T11:20:30.844Z,3.33
2022-11-19T11:23:18.317Z,3.10
2022-11-19T11:26:12.608Z,3.17
2022-11-19T11:29:02.764Z,3.20
2022-11-19T11:31:50.244Z,3.07
2022-11-19T11:34:41.205Z,3.10
2022-11-19T11:37:30.823Z,2.97
2022-11-19T11:40:22.894Z,3.00
2022-11-19T11:43:16.617Z,2.77
2022-11-19T11:46:05.673Z,2.90
2022-11-19T11:48:53.453Z,2.60
2022-11-19T11:51:40.912Z,2.40
2022-11-19T11:54:28.453Z,2.97
2022-11-19T11:57:20.028Z,3.20
2022-11-19T12:00:29.299Z,2.80
2022-11-19T12:03:21.158Z,2.43
2022-11-19T12:06:08.527Z,2.30
2022-11-19T12:08:56.208Z,2.77
2022-11-19T12:12:02.151Z,2.70
2022-11-19T12:14:52.511Z,2.63
2022-11-19T12:17:56.369Z,3.10
2022-11-19T12:20:48.558Z,2.97
2022-11-19T12:23:54.907Z,3.23
2022-11-19T12:26:51.689Z,3.00
2022-11-19T12:29:55.165Z,3.00
2022-11-19T12:32:42.576Z,3.53
2022-11-19T12:35:38.714Z,3.00
2022-11-19T12:38:55.759Z,3.23
2022-11-19T12:41:43.237Z,3.13
2022-11-19T12:44:33.723Z,2.83
2022-11-19T12:47:28.553Z,3.20
2022-11-19T12:50:19.376Z,4.67
2022-11-19T12:53:13.966Z,4.80
2022-11-19T12:56:27.730Z,3.67
2022-11-19T12:59:32.212Z,5.33
2022-11-19T13:02:26.307Z,7.57
2022-11-19T13:05:13.903Z,6.73
2022-11-19T13:08:20.454Z,4.10
2022-11-19T13:11:12.669Z,4.53
2022-11-19T13:14:03.403Z,3.63
2022-11-19T13:16:51.249Z,3.93
2022-11-19T13:19:39.465Z,4.73
2022-11-19T13:22:42.448Z,11.67
2022-11-19T13:25:32.868Z,50.90
2022-11-19T13:28:27.053Z,64.57
2022-11-19T13:31:22.686Z,88.03
2022-11-19T13:34:26.278Z,132.57
2022-11-19T13:37:32.535Z,107.27
2022-11-19T13:40:35.373Z,72.53
2022-11-19T13:43:42.406Z,115.57
2022-11-19T13:46:29.751Z,104.13
2022-11-19T13:49:20.577Z,74.10
2022-11-19T13:52:09.900Z,38.10
2022-11-19T13:54:58.229Z,20.30
2022-11-19T13:57:46.011Z,18.47
2022-11-19T14:00:33.979Z,15.27
2022-11-19T14:03:34.800Z,18.80
2022-11-19T14:06:28.873Z,12.57
2022-11-19T14:09:22.939Z,6.23
2022-11-19T14:12:33.798Z,6.57
2022-11-19T14:15:59.034Z,4.80
2022-11-19T14:19:06.899Z,4.87
2022-11-19T14:22:13.487Z,4.53
2022-11-19T14:25:19.626Z,3.00
2022-11-19T14:28:27.300Z,2.67
2022-11-19T14:31:15.477Z,2.53
2022-11-19T14:34:04.220Z,2.50
2022-11-19T14:36:52.420Z,2.83
2022-11-19T14:39:41.306Z,3.00
2022-11-19T14:42:28.757Z,2.70
2022-11-19T14:45:16.472Z,3.80
2022-11-19T14:48:04.679Z,2.80
2022-11-19T14:51:02.251Z,2.97
2022-11-19T14:54:08.504Z,2.50
2022-11-19T14:57:15.657Z,2.50
2022-11-19T15:00:05.320Z,2.53
2022-11-19T15:02:54.435Z,2.83
2022-11-19T15:05:43.330Z,2.60
2022-11-19T15:08:42.023Z,3.10
2022-11-19T15:11:48.865Z,2.50
2022-11-19T15:15:00.115Z,3.03
2022-11-19T15:17:48.690Z,2.57
2022-11-19T15:20:55.278Z,2.63
2022-11-19T15:23:50.884Z,3.70
2022-11-19T15:26:50.353Z,3.50
2022-11-19T15:30:04.962Z,3.70
2022-11-19T15:33:04.512Z,2.60
2022-11-19T15:36:08.687Z,2.83
2022-11-19T15:39:05.847Z,2.47
2022-11-19T15:42:01.336Z,2.63
2022-11-19T15:44:53.530Z,2.23
2022-11-19T15:47:49.667Z,2.13
2022-11-19T15:50:37.562Z,2.30
2022-11-19T15:53:25.003Z,2.20
2022-11-19T15:56:14.412Z,1.73
2022-11-19T15:59:03.223Z,2.10
2022-11-19T16:01:59.385Z,1.83
2022-11-19T16:04:49.394Z,1.80
2022-11-19T16:07:36.837Z,2.10
2022-11-19T16:10:31.417Z,3.20
2022-11-19T16:13:40.291Z,3.20
2022-11-19T16:16:47.631Z,3.93
2022-11-19T16:19:35.080Z,5.80
2022-11-19T16:22:22.967Z,9.97
2022-11-19T16:25:15.239Z,4.97
2022-11-19T16:28:06.143Z,3.67
2022-11-19T16:30:55.285Z,3.67
2022-11-19T16:33:42.755Z,2.93
2022-11-19T16:36:31.949Z,2.70
2022-11-19T16:39:22.299Z,2.60
2022-11-19T16:42:17.665Z,2.87
2022-11-19T16:45:10.139Z,2.60
2022-11-19T16:47:58.732Z,2.53
2022-11-19T16:50:46.922Z,2.50
2022-11-19T16:53:47.366Z,2.83
2022-11-19T16:56:36.625Z,2.70
2022-11-19T16:59:25.210Z,2.70
2022-11-19T17:02:15.784Z,2.70
2022-11-19T17:05:09.954Z,2.50
2022-11-19T17:08:06.281Z,2.60
2022-11-19T17:11:32.799Z,2.60
2022-11-19T17:14:24.714Z,2.57
2022-11-19T17:17:44.345Z,3.80
2022-11-19T17:20:32.049Z,2.87
2022-11-19T17:23:26.701Z,2.73
2022-11-19T17:26:20.495Z,4.13
2022-11-19T17:29:14.283Z,9.17
2022-11-19T17:32:04.128Z,5.00
2022-11-19T17:34:55.103Z,15.73
2022-11-19T17:37:42.091Z,15.00
2022-11-19T17:40:29.062Z,6.60
2022-11-19T17:43:41.188Z,6.77
2022-11-19T17:46:29.835Z,4.47
2022-11-19T17:49:16.830Z,5.40
2022-11-19T17:52:04.042Z,10.77
2022-11-19T17:54:53.366Z,7.60
2022-11-19T17:57:42.796Z,4.47
2022-11-19T18:00:29.966Z,4.30
2022-11-19T18:03:17.758Z,3.07
2022-11-19T18:06:05.274Z,2.97
2022-11-19T18:08:52.195Z,3.13
2022-11-19T18:11:39.784Z,3.20
2022-11-19T18:14:26.711Z,3.10
2022-11-19T18:17:14.828Z,2.67
2022-11-19T18:20:02.179Z,2.97
2022-11-19T18:22:49.143Z,2.93
2022-11-19T18:25:36.102Z,2.90
2022-11-19T18:28:23.095Z,3.00
2022-11-19T18:31:17.676Z,2.90
2022-11-19T18:34:04.630Z,2.57
2022-11-19T18:36:51.623Z,3.00
2022-11-19T18:39:38.622Z,3.13
2022-11-19T18:42:25.868Z,3.13
2022-11-19T18:45:13.109Z,3.00
2022-11-19T18:48:00.035Z,3.30
2022-11-19T18:50:46.992Z,2.90
2022-11-19T18:53:34.115Z,2.60
2022-11-19T18:56:21.160Z,2.90
2022-11-19T18:59:10.718Z,2.77
2022-11-19T19:01:57.823Z,2.80
2022-11-19T19:04:49.693Z,3.80
2022-11-19T19:07:37.901Z,2.97
2022-11-19T19:10:24.879Z,3.17
2022-11-19T19:13:11.779Z,2.70
2022-11-19T19:16:00.929Z,3.40
2022-11-19T19:18:47.943Z,3.23
2022-11-19T19:21:34.843Z,3.40
2022-11-19T19:24:22.022Z,3.50
2022-11-19T19:27:09.518Z,3.30
2022-11-19T19:29:56.631Z,2.97
2022-11-19T19:32:44.452Z,3.40
2022-11-19T19:35:31.413Z,3.17
2022-11-19T19:38:18.424Z,3.23
2022-11-19T19:41:07.377Z,3.73
2022-11-19T19:43:57.315Z,5.23
2022-11-19T19:46:47.575Z,3.43
2022-11-19T19:49:38.559Z,5.00
2022-11-19T19:52:26.068Z,4.20
2022-11-19T19:55:13.036Z,4.30
2022-11-19T19:58:05.219Z,3.70
2022-11-19T20:00:52.159Z,7.57
2022-11-19T20:03:39.721Z,4.47
2022-11-19T20:06:26.994Z,5.73
2022-11-19T20:09:14.318Z,3.93
2022-11-19T20:12:01.880Z,4.13
2022-11-19T20:14:48.808Z,3.47
2022-11-19T20:17:35.719Z,3.50
2022-11-19T20:20:22.657Z,3.47
2022-11-19T20:23:09.593Z,3.53
2022-11-19T20:25:58.506Z,3.97
2022-11-19T20:28:46.061Z,3.50
2022-11-19T20:31:33.823Z,3.80
2022-11-19T20:34:20.794Z,3.50
2022-11-19T20:37:07.858Z,3.40
2022-11-19T20:39:54.831Z,3.50
2022-11-19T20:43:00.910Z,3.33
2022-11-19T20:45:47.842Z,3.90
2022-11-19T20:48:34.848Z,3.60
2022-11-19T20:51:21.749Z,3.60
2022-11-19T20:54:09.252Z,3.80
2022-11-19T20:56:57.067Z,3.60
2022-11-19T20:59:44.077Z,3.57
2022-11-19T21:02:31.071Z,3.87
2022-11-19T21:05:19.198Z,4.13
2022-11-19T21:08:06.110Z,4.40
2022-11-19T21:11:03.396Z,3.57
2022-11-19T21:13:50.338Z,3.60
2022-11-19T21:16:37.503Z,3.10
2022-11-19T21:19:24.753Z,3.20
2022-11-19T21:22:11.931Z,3.37
2022-11-19T21:24:59.709Z,4.03
2022-11-19T21:27:46.627Z,3.70
2022-11-19T21:30:33.917Z,4.00
2022-11-19T21:33:20.859Z,4.17
2022-11-19T21:36:08.725Z,3.67
2022-11-19T21:38:55.842Z,4.00
2022-11-19T21:41:44.134Z,3.80
2022-11-19T21:44:31.221Z,5.20
2022-11-19T21:47:18.247Z,5.60
2022-11-19T21:50:05.637Z,4.27
2022-11-19T21:52:52.741Z,5.33
2022-11-19T21:55:43.205Z,5.00
2022-11-19T21:58:30.275Z,5.33
2022-11-19T22:01:17.456Z,4.63
2022-11-19T22:04:04.988Z,8.60
2022-11-19T22:06:52.238Z,6.03
2022-11-19T22:09:39.260Z,4.03
2022-11-19T22:12:26.234Z,4.57
2022-11-19T22:15:13.189Z,4.43
2022-11-19T22:18:00.104Z,3.67
2022-11-19T22:20:47.136Z,4.17
2022-11-19T22:23:34.105Z,3.60
2022-11-19T22:26:21.265Z,3.60
2022-11-19T22:29:08.193Z,3.50
2022-11-19T22:31:55.176Z,3.67
2022-11-19T22:34:42.349Z,4.17
2022-11-19T22:37:29.312Z,3.47
2022-11-19T22:40:16.333Z,3.47
2022-11-19T22:43:03.316Z,3.33
2022-11-19T22:45:50.231Z,3.50
2022-11-19T22:48:38.450Z,3.70
2022-11-19T22:51:26.122Z,3.40
2022-11-19T22:54:15.134Z,3.97
2022-11-19T22:57:02.023Z,4.50
2022-11-19T22:59:48.934Z,4.03
2022-11-19T23:02:35.887Z,3.97
2022-11-19T23:05:22.837Z,3.97
2022-11-19T23:08:13.514Z,3.33
2022-11-19T23:11:02.606Z,3.90
2022-11-19T23:13:49.504Z,3.90
2022-11-19T23:16:37.331Z,3.73
2022-11-19T23:19:24.414Z,3.90
2022-11-19T23:22:11.396Z,4.50
2022-11-19T23:24:58.317Z,4.00
2022-11-19T23:27:45.330Z,3.93
2022-11-19T23:30:33.407Z,3.97
2022-11-19T23:33:21.321Z,4.40
2022-11-19T23:36:11.836Z,3.80
2022-11-19T23:38:59.804Z,4.17
2022-11-19T23:41:46.771Z,4.53
2022-11-19T23:44:33.752Z,4.40
2022-11-19T23:47:20.701Z,4.60
2022-11-19T23:50:08.175Z,4.90
2022-11-19T23:52:55.163Z,4.87
2022-11-19T23:55:47.467Z,4.10
2022-11-19T23:58:34.997Z,4.83
